Home   Weather   USA   Plainfield   Past weeks
Flag for USA

Past Weather in Plainfield, Illinois, USA — Yesterday and Last 2 Weeks

Currently: 81 °F. Scattered clouds. (Weather station: Lewis University Airport, USA). See more current weather

Past Weather in Plainfield — Graph

°F

Plainfield Temperature Yesterday

Maximum temperature yesterday: 84 °F (at 1:55 pm)
Minimum temperature yesterday: 68 °F (at 3:35 am)
Average temperature yesterday: 75 °F

High & Low Weather Summary for the Past Weeks

 TemperatureHumidityPressure
High90 °F (Jul 13, 3:45 pm)100% (Jul 3, 5:15 am)30.18 "Hg (Jul 3, 5:15 am)
Low63 °F (Jul 6, 5:15 am)42% (Jul 2, 2:45 pm)29.65 "Hg (Jul 15, 8:55 pm)
Average74 °F86%29.95 "Hg
* Reported Jul 2 2:45 pm — Jul 17 2:50 pm, Plainfield. Weather by CustomWeather, © 2024

Note: Actual official high and low records may vary slightly from our data, if they occured in-between our weather recording intervals... More about our weather records

Plainfield Weather History for the Previous 24 Hours

Scroll right to see more
 ConditionsComfort  
Time TempWeatherWind HumidityBarometerVisibility
2:50 pm
Wed, Jul 17
81 °FScattered clouds.10 mph48%30.00 "Hg10 mi
1:45 pm81 °FScattered clouds.12 mph45%29.99 "Hg10 mi
12:55 pm81 °FSunny.12 mph48%29.99 "Hg10 mi
11:55 am81 °FSunny.14 mph48%29.99 "Hg10 mi
10:55 am81 °FSunny.12 mph45%29.98 "Hg10 mi
9:55 am79 °FSunny.12 mph54%29.97 "Hg10 mi
8:45 am75 °FSunny.10 mph74%29.96 "Hg10 mi
7:55 am72 °FSunny.8 mph83%29.95 "Hg10 mi
6:55 am72 °FSunny.8 mph83%29.94 "Hg10 mi
5:48 am70 °FSunny.7 mph100%29.92 "Hg9 mi
5:15 am70 °FPassing clouds.6 mph100%29.92 "Hg9 mi
5:00 am72 °FPassing clouds.6 mph100%29.92 "Hg10 mi
4:40 am70 °FClear.No wind100%29.91 "Hg10 mi
4:20 am70 °FPassing clouds.No wind100%29.90 "Hg10 mi
4:00 am72 °FPassing clouds.No wind100%29.89 "Hg10 mi
3:40 am72 °FPassing clouds.5 mph100%29.88 "Hg9 mi
2:55 am73 °FOvercast.5 mph100%29.88 "Hg9 mi
2:15 am72 °FPassing clouds.3 mph100%29.88 "Hg9 mi
1:55 am72 °FClear.3 mph100%29.88 "Hg9 mi
1:15 am73 °FPassing clouds.No wind100%29.88 "Hg10 mi
12:55 am75 °FMostly cloudy.No wind100%29.89 "Hg10 mi
12:15 am73 °FPassing clouds.No wind100%29.90 "Hg9 mi
12:00 am75 °FPartly cloudy.6 mph100%29.91 "Hg10 mi
11:20 pm
Tue, Jul 16
75 °FPassing clouds.8 mph100%29.90 "Hg10 mi
10:55 pm75 °FClear.6 mph94%29.89 "Hg10 mi
10:35 pm75 °FPassing clouds.6 mph94%29.87 "Hg10 mi
10:15 pm77 °FClear.No wind94%29.86 "Hg10 mi
9:55 pm77 °FPassing clouds.6 mph94%29.86 "Hg10 mi
9:35 pm79 °FPassing clouds.6 mph89%29.86 "Hg10 mi
8:55 pm79 °FClear.6 mph84%29.84 "Hg10 mi
8:20 pm79 °FSunny.7 mph84%29.84 "Hg10 mi
7:45 pm81 °FSunny.8 mph74%29.83 "Hg10 mi
6:45 pm82 °FScattered clouds.13 mph74%29.83 "Hg10 mi
5:45 pm84 °FScattered clouds.10 mph70%29.83 "Hg10 mi
4:45 pm84 °FScattered clouds.9 mph74%29.83 "Hg10 mi
Weather by CustomWeather, © 2024

See weather overview